Roosevelt, Oklahoma
Current Conditions -  °F | °C
As of 8:53 AM on Wednesday 22 Oct 2014 (Local Time) from KHBR Reporting Station
Clear Clear  
Wind Chill: 62°   Ceiling: Unl
Heat Index: 62°   Visibility: 10mi
Dew Point: 53°   Wind: 12mph
Humidity: 72%   Direction: 180°S
Pressure: 30.13"   Gusts: NA
Location:  34.85°N, 99.02°W
Report Text: KHBR 221353Z AUTO 18010KT 10SM CLR 17/12 A3013 RMK AO2 SLP191 T01670117
Loading
Personal Weather Stations






























Interactive Weather Map
Tropical Storm Tracking
New forecast layout! Learn more

10-Day Weather Forecast

Advertisements
Track Severe Weather on mobile